sensor_id;sensor_type;location;lat;lon;timestamp;temperature;humidity
35305;DHT22;26433;48.034;-1.764;2024-02-21T00:02:39;12.10;99.90
35305;DHT22;26433;48.034;-1.764;2024-02-21T00:07:42;12.10;99.90
35305;DHT22;26433;48.034;-1.764;2024-02-21T00:12:46;12.00;99.90
35305;DHT22;26433;48.034;-1.764;2024-02-21T00:17:51;12.00;99.90
35305;DHT22;26433;48.034;-1.764;2024-02-21T00:22:54;12.00;99.90
35305;DHT22;26433;48.034;-1.764;2024-02-21T00:27:57;12.00;99.90
35305;DHT22;26433;48.034;-1.764;2024-02-21T00:33:02;11.90;99.90
35305;DHT22;26433;48.034;-1.764;2024-02-21T00:38:06;11.90;99.90
35305;DHT22;26433;48.034;-1.764;2024-02-21T00:43:09;11.80;99.90
35305;DHT22;26433;48.034;-1.764;2024-02-21T00:48:14;11.90;99.90
35305;DHT22;26433;48.034;-1.764;2024-02-21T00:53:17;11.80;99.90
35305;DHT22;26433;48.034;-1.764;2024-02-21T00:58:21;11.80;99.90
35305;DHT22;26433;48.034;-1.764;2024-02-21T01:03:25;11.80;99.90
35305;DHT22;26433;48.034;-1.764;2024-02-21T01:08:29;11.80;99.90
35305;DHT22;26433;48.034;-1.764;2024-02-21T01:13:32;11.80;99.90
35305;DHT22;26433;48.034;-1.764;2024-02-21T01:18:38;11.80;99.90
35305;DHT22;26433;48.034;-1.764;2024-02-21T01:23:42;11.80;99.90
35305;DHT22;26433;48.034;-1.764;2024-02-21T01:28:46;11.80;99.90
35305;DHT22;26433;48.034;-1.764;2024-02-21T01:33:50;11.80;99.90
35305;DHT22;26433;48.034;-1.764;2024-02-21T01:38:54;11.80;99.90
35305;DHT22;26433;48.034;-1.764;2024-02-21T01:43:57;11.80;99.90
35305;DHT22;26433;48.034;-1.764;2024-02-21T01:49:02;11.80;99.90
35305;DHT22;26433;48.034;-1.764;2024-02-21T01:54:07;11.80;99.90
35305;DHT22;26433;48.034;-1.764;2024-02-21T01:59:10;11.80;99.90
35305;DHT22;26433;48.034;-1.764;2024-02-21T02:04:16;11.80;99.90
35305;DHT22;26433;48.034;-1.764;2024-02-21T02:09:19;11.80;99.90
35305;DHT22;26433;48.034;-1.764;2024-02-21T02:14:23;11.80;99.90
35305;DHT22;26433;48.034;-1.764;2024-02-21T02:19:27;11.80;99.90
35305;DHT22;26433;48.034;-1.764;2024-02-21T02:24:32;11.80;99.90
35305;DHT22;26433;48.034;-1.764;2024-02-21T02:29:36;11.70;99.90
35305;DHT22;26433;48.034;-1.764;2024-02-21T02:34:39;11.70;99.90
35305;DHT22;26433;48.034;-1.764;2024-02-21T02:39:44;11.60;99.90
35305;DHT22;26433;48.034;-1.764;2024-02-21T02:44:47;11.60;99.90
35305;DHT22;26433;48.034;-1.764;2024-02-21T02:49:51;11.60;99.90
35305;DHT22;26433;48.034;-1.764;2024-02-21T02:54:55;11.60;99.90
35305;DHT22;26433;48.034;-1.764;2024-02-21T02:59:59;11.60;99.90
35305;DHT22;26433;48.034;-1.764;2024-02-21T03:05:02;11.60;99.90
35305;DHT22;26433;48.034;-1.764;2024-02-21T03:10:15;11.60;99.90
35305;DHT22;26433;48.034;-1.764;2024-02-21T03:15:20;11.50;99.90
35305;DHT22;26433;48.034;-1.764;2024-02-21T03:20:23;11.60;99.90
35305;DHT22;26433;48.034;-1.764;2024-02-21T03:25:28;11.60;99.90
35305;DHT22;26433;48.034;-1.764;2024-02-21T03:30:32;11.60;99.90
35305;DHT22;26433;48.034;-1.764;2024-02-21T03:35:36;11.60;99.90
35305;DHT22;26433;48.034;-1.764;2024-02-21T03:40:40;11.60;99.90
35305;DHT22;26433;48.034;-1.764;2024-02-21T03:45:44;11.60;99.90
35305;DHT22;26433;48.034;-1.764;2024-02-21T03:50:47;11.70;99.90
35305;DHT22;26433;48.034;-1.764;2024-02-21T03:55:52;11.70;99.90
35305;DHT22;26433;48.034;-1.764;2024-02-21T04:00:55;11.70;99.90
35305;DHT22;26433;48.034;-1.764;2024-02-21T04:05:59;11.70;99.90
35305;DHT22;26433;48.034;-1.764;2024-02-21T04:11:04;11.70;99.90
35305;DHT22;26433;48.034;-1.764;2024-02-21T04:16:07;11.70;99.90
35305;DHT22;26433;48.034;-1.764;2024-02-21T04:21:11;11.70;99.90
35305;DHT22;26433;48.034;-1.764;2024-02-21T04:26:19;11.70;99.90
35305;DHT22;26433;48.034;-1.764;2024-02-21T04:31:22;11.70;99.90
35305;DHT22;26433;48.034;-1.764;2024-02-21T04:36:26;11.60;99.90
35305;DHT22;26433;48.034;-1.764;2024-02-21T04:41:31;11.70;99.90
35305;DHT22;26433;48.034;-1.764;2024-02-21T04:46:34;11.60;99.90
35305;DHT22;26433;48.034;-1.764;2024-02-21T04:51:39;11.70;99.90
35305;DHT22;26433;48.034;-1.764;2024-02-21T04:56:43;11.70;99.90
35305;DHT22;26433;48.034;-1.764;2024-02-21T05:01:47;11.60;99.90
35305;DHT22;26433;48.034;-1.764;2024-02-21T05:06:50;11.70;99.90
35305;DHT22;26433;48.034;-1.764;2024-02-21T05:11:55;11.60;99.90
35305;DHT22;26433;48.034;-1.764;2024-02-21T05:16:59;11.70;99.90
35305;DHT22;26433;48.034;-1.764;2024-02-21T05:22:02;11.70;99.90
35305;DHT22;26433;48.034;-1.764;2024-02-21T05:27:07;11.70;99.90
35305;DHT22;26433;48.034;-1.764;2024-02-21T05:32:10;11.60;99.90
35305;DHT22;26433;48.034;-1.764;2024-02-21T05:37:13;11.70;99.90
35305;DHT22;26433;48.034;-1.764;2024-02-21T05:42:18;11.60;99.90
35305;DHT22;26433;48.034;-1.764;2024-02-21T05:47:22;11.70;99.90
35305;DHT22;26433;48.034;-1.764;2024-02-21T05:52:25;11.70;99.90
35305;DHT22;26433;48.034;-1.764;2024-02-21T05:57:30;11.70;99.90
35305;DHT22;26433;48.034;-1.764;2024-02-21T06:02:33;11.70;99.90
35305;DHT22;26433;48.034;-1.764;2024-02-21T06:07:36;11.70;99.90
35305;DHT22;26433;48.034;-1.764;2024-02-21T06:12:42;11.70;99.90
35305;DHT22;26433;48.034;-1.764;2024-02-21T06:17:46;11.70;99.90
35305;DHT22;26433;48.034;-1.764;2024-02-21T06:22:49;11.70;99.90
35305;DHT22;26433;48.034;-1.764;2024-02-21T06:27:54;11.70;99.90
35305;DHT22;26433;48.034;-1.764;2024-02-21T06:32:57;11.70;99.90
35305;DHT22;26433;48.034;-1.764;2024-02-21T06:38:02;11.70;99.90
35305;DHT22;26433;48.034;-1.764;2024-02-21T06:43:06;11.70;99.90
35305;DHT22;26433;48.034;-1.764;2024-02-21T06:48:10;11.70;99.90
35305;DHT22;26433;48.034;-1.764;2024-02-21T06:53:13;11.80;99.90
35305;DHT22;26433;48.034;-1.764;2024-02-21T06:58:18;11.80;99.90
35305;DHT22;26433;48.034;-1.764;2024-02-21T07:03:21;11.80;99.90
35305;DHT22;26433;48.034;-1.764;2024-02-21T07:08:26;11.80;99.90
35305;DHT22;26433;48.034;-1.764;2024-02-21T07:13:31;11.80;99.90
35305;DHT22;26433;48.034;-1.764;2024-02-21T07:18:35;11.80;99.90
35305;DHT22;26433;48.034;-1.764;2024-02-21T07:23:40;11.80;99.90
35305;DHT22;26433;48.034;-1.764;2024-02-21T07:28:45;11.90;99.90
35305;DHT22;26433;48.034;-1.764;2024-02-21T07:33:48;11.90;99.90
35305;DHT22;26433;48.034;-1.764;2024-02-21T07:38:52;12.00;99.90
35305;DHT22;26433;48.034;-1.764;2024-02-21T07:43:56;12.00;99.90
35305;DHT22;26433;48.034;-1.764;2024-02-21T07:49:00;12.10;99.90
35305;DHT22;26433;48.034;-1.764;2024-02-21T07:54:04;12.10;99.90
35305;DHT22;26433;48.034;-1.764;2024-02-21T07:59:10;12.20;99.90
35305;DHT22;26433;48.034;-1.764;2024-02-21T08:04:15;12.10;99.90
35305;DHT22;26433;48.034;-1.764;2024-02-21T08:09:18;12.20;99.90
35305;DHT22;26433;48.034;-1.764;2024-02-21T08:14:23;12.20;99.90
35305;DHT22;26433;48.034;-1.764;2024-02-21T08:19:27;12.10;99.90
35305;DHT22;26433;48.034;-1.764;2024-02-21T08:24:30;12.30;99.90
35305;DHT22;26433;48.034;-1.764;2024-02-21T08:29:35;12.20;99.90
35305;DHT22;26433;48.034;-1.764;2024-02-21T08:34:38;12.30;99.90
35305;DHT22;26433;48.034;-1.764;2024-02-21T08:39:41;12.30;99.90
35305;DHT22;26433;48.034;-1.764;2024-02-21T08:44:46;12.30;99.90
35305;DHT22;26433;48.034;-1.764;2024-02-21T08:49:49;12.30;99.90
35305;DHT22;26433;48.034;-1.764;2024-02-21T08:54:53;12.30;99.90
35305;DHT22;26433;48.034;-1.764;2024-02-21T08:59:58;12.40;99.90
35305;DHT22;26433;48.034;-1.764;2024-02-21T09:05:01;12.40;99.90
35305;DHT22;26433;48.034;-1.764;2024-02-21T09:10:07;12.40;99.90
35305;DHT22;26433;48.034;-1.764;2024-02-21T09:15:12;12.50;99.90
35305;DHT22;26433;48.034;-1.764;2024-02-21T09:20:16;12.50;99.90
35305;DHT22;26433;48.034;-1.764;2024-02-21T09:25:20;12.50;99.90
35305;DHT22;26433;48.034;-1.764;2024-02-21T09:30:25;12.60;99.90
35305;DHT22;26433;48.034;-1.764;2024-02-21T09:35:28;12.60;99.90
35305;DHT22;26433;48.034;-1.764;2024-02-21T09:40:32;12.60;99.90
35305;DHT22;26433;48.034;-1.764;2024-02-21T09:45:36;12.70;99.90
35305;DHT22;26433;48.034;-1.764;2024-02-21T09:50:41;12.80;99.90
35305;DHT22;26433;48.034;-1.764;2024-02-21T09:55:46;12.80;99.90
35305;DHT22;26433;48.034;-1.764;2024-02-21T10:00:53;12.80;99.90
35305;DHT22;26433;48.034;-1.764;2024-02-21T10:05:56;12.90;99.90
35305;DHT22;26433;48.034;-1.764;2024-02-21T10:11:02;12.90;99.90
35305;DHT22;26433;48.034;-1.764;2024-02-21T10:16:07;13.00;99.90
35305;DHT22;26433;48.034;-1.764;2024-02-21T10:21:11;13.00;99.90
35305;DHT22;26433;48.034;-1.764;2024-02-21T10:26:15;13.00;99.90
35305;DHT22;26433;48.034;-1.764;2024-02-21T10:31:24;13.10;99.90
35305;DHT22;26433;48.034;-1.764;2024-02-21T10:36:27;13.20;99.90
35305;DHT22;26433;48.034;-1.764;2024-02-21T10:41:30;13.20;99.90
35305;DHT22;26433;48.034;-1.764;2024-02-21T10:46:36;13.20;99.90
35305;DHT22;26433;48.034;-1.764;2024-02-21T10:51:41;13.20;99.90
35305;DHT22;26433;48.034;-1.764;2024-02-21T10:56:46;13.30;99.90
35305;DHT22;26433;48.034;-1.764;2024-02-21T11:01:52;13.30;99.90
35305;DHT22;26433;48.034;-1.764;2024-02-21T11:07:00;13.30;99.90
35305;DHT22;26433;48.034;-1.764;2024-02-21T11:12:11;13.30;99.90
35305;DHT22;26433;48.034;-1.764;2024-02-21T11:17:16;13.30;99.90
35305;DHT22;26433;48.034;-1.764;2024-02-21T11:22:20;13.30;99.90
35305;DHT22;26433;48.034;-1.764;2024-02-21T11:27:25;13.30;99.90
35305;DHT22;26433;48.034;-1.764;2024-02-21T11:32:29;13.40;99.90
35305;DHT22;26433;48.034;-1.764;2024-02-21T11:37:34;13.30;99.90
35305;DHT22;26433;48.034;-1.764;2024-02-21T11:42:39;13.40;99.90
35305;DHT22;26433;48.034;-1.764;2024-02-21T11:47:44;13.40;99.90
35305;DHT22;26433;48.034;-1.764;2024-02-21T11:52:48;13.50;99.90
35305;DHT22;26433;48.034;-1.764;2024-02-21T11:57:51;13.40;99.90
35305;DHT22;26433;48.034;-1.764;2024-02-21T12:02:56;13.40;99.90
35305;DHT22;26433;48.034;-1.764;2024-02-21T12:08:04;13.40;99.90
35305;DHT22;26433;48.034;-1.764;2024-02-21T12:13:08;13.40;99.90
35305;DHT22;26433;48.034;-1.764;2024-02-21T12:18:13;13.30;99.90
35305;DHT22;26433;48.034;-1.764;2024-02-21T12:23:18;13.30;99.90
35305;DHT22;26433;48.034;-1.764;2024-02-21T12:28:21;13.30;99.90
35305;DHT22;26433;48.034;-1.764;2024-02-21T12:33:26;13.30;99.90
35305;DHT22;26433;48.034;-1.764;2024-02-21T12:38:30;13.30;99.90
35305;DHT22;26433;48.034;-1.764;2024-02-21T12:43:33;13.30;99.90
35305;DHT22;26433;48.034;-1.764;2024-02-21T12:48:38;13.20;99.90
35305;DHT22;26433;48.034;-1.764;2024-02-21T12:53:42;13.20;99.90
35305;DHT22;26433;48.034;-1.764;2024-02-21T12:58:45;13.20;99.90
35305;DHT22;26433;48.034;-1.764;2024-02-21T13:03:50;13.20;99.90
35305;DHT22;26433;48.034;-1.764;2024-02-21T13:08:54;13.10;99.90
35305;DHT22;26433;48.034;-1.764;2024-02-21T13:13:57;13.20;99.90
35305;DHT22;26433;48.034;-1.764;2024-02-21T13:19:02;13.10;99.90
35305;DHT22;26433;48.034;-1.764;2024-02-21T13:24:06;13.10;99.90
35305;DHT22;26433;48.034;-1.764;2024-02-21T13:29:10;13.10;99.90
35305;DHT22;26433;48.034;-1.764;2024-02-21T13:34:15;13.00;99.90
35305;DHT22;26433;48.034;-1.764;2024-02-21T13:39:19;13.00;99.90
35305;DHT22;26433;48.034;-1.764;2024-02-21T13:44:22;13.00;99.90
35305;DHT22;26433;48.034;-1.764;2024-02-21T13:49:27;13.00;99.90
35305;DHT22;26433;48.034;-1.764;2024-02-21T13:54:31;13.10;99.90
35305;DHT22;26433;48.034;-1.764;2024-02-21T13:59:34;13.20;99.90
35305;DHT22;26433;48.034;-1.764;2024-02-21T14:04:39;13.20;99.90
35305;DHT22;26433;48.034;-1.764;2024-02-21T14:09:42;16.10;99.90
35305;DHT22;26433;48.034;-1.764;2024-02-21T14:14:46;13.30;99.90
35305;DHT22;26433;48.034;-1.764;2024-02-21T14:19:50;12.30;99.90
35305;DHT22;26433;48.034;-1.764;2024-02-21T14:24:54;13.40;99.90
35305;DHT22;26433;48.034;-1.764;2024-02-21T14:29:58;13.40;99.90
35305;DHT22;26433;48.034;-1.764;2024-02-21T14:35:03;13.40;99.90
35305;DHT22;26433;48.034;-1.764;2024-02-21T14:40:08;13.50;99.90
35305;DHT22;26433;48.034;-1.764;2024-02-21T14:45:12;13.60;99.90
35305;DHT22;26433;48.034;-1.764;2024-02-21T14:50:17;13.60;99.90
35305;DHT22;26433;48.034;-1.764;2024-02-21T14:55:21;13.70;99.90
35305;DHT22;26433;48.034;-1.764;2024-02-21T15:00:25;13.80;99.90
35305;DHT22;26433;48.034;-1.764;2024-02-21T15:05:33;13.90;99.90
35305;DHT22;26433;48.034;-1.764;2024-02-21T15:10:37;14.00;99.90
35305;DHT22;26433;48.034;-1.764;2024-02-21T15:15:40;14.10;99.90
35305;DHT22;26433;48.034;-1.764;2024-02-21T15:20:45;14.20;99.90
35305;DHT22;26433;48.034;-1.764;2024-02-21T15:25:49;14.20;99.90
35305;DHT22;26433;48.034;-1.764;2024-02-21T15:30:52;14.20;99.90
35305;DHT22;26433;48.034;-1.764;2024-02-21T15:35:57;14.20;99.90
35305;DHT22;26433;48.034;-1.764;2024-02-21T15:41:01;14.30;99.90
35305;DHT22;26433;48.034;-1.764;2024-02-21T15:46:04;14.30;99.90
35305;DHT22;26433;48.034;-1.764;2024-02-21T15:51:09;14.40;99.90
35305;DHT22;26433;48.034;-1.764;2024-02-21T15:56:12;14.40;99.90
35305;DHT22;26433;48.034;-1.764;2024-02-21T16:01:17;14.40;99.90
35305;DHT22;26433;48.034;-1.764;2024-02-21T16:06:21;14.40;99.90
35305;DHT22;26433;48.034;-1.764;2024-02-21T16:11:25;14.40;99.90
35305;DHT22;26433;48.034;-1.764;2024-02-21T16:16:29;14.50;99.90
35305;DHT22;26433;48.034;-1.764;2024-02-21T16:21:34;14.40;99.90
35305;DHT22;26433;48.034;-1.764;2024-02-21T16:26:38;14.40;99.90
35305;DHT22;26433;48.034;-1.764;2024-02-21T16:31:41;14.40;99.90
35305;DHT22;26433;48.034;-1.764;2024-02-21T16:36:46;14.40;99.90
35305;DHT22;26433;48.034;-1.764;2024-02-21T16:41:49;14.40;99.90
35305;DHT22;26433;48.034;-1.764;2024-02-21T16:46:55;14.40;99.90
35305;DHT22;26433;48.034;-1.764;2024-02-21T16:52:00;14.40;99.90
35305;DHT22;26433;48.034;-1.764;2024-02-21T16:57:04;14.40;99.90
35305;DHT22;26433;48.034;-1.764;2024-02-21T17:02:07;14.40;99.90
35305;DHT22;26433;48.034;-1.764;2024-02-21T17:07:12;14.30;99.90
35305;DHT22;26433;48.034;-1.764;2024-02-21T17:12:16;14.40;99.90
35305;DHT22;26433;48.034;-1.764;2024-02-21T17:17:19;14.40;99.90
35305;DHT22;26433;48.034;-1.764;2024-02-21T17:22:24;14.40;99.90
35305;DHT22;26433;48.034;-1.764;2024-02-21T17:27:27;14.40;99.90
35305;DHT22;26433;48.034;-1.764;2024-02-21T17:32:31;14.40;99.90
35305;DHT22;26433;48.034;-1.764;2024-02-21T17:37:37;14.40;99.90
35305;DHT22;26433;48.034;-1.764;2024-02-21T17:42:41;14.40;99.90
35305;DHT22;26433;48.034;-1.764;2024-02-21T17:47:44;14.40;99.90
35305;DHT22;26433;48.034;-1.764;2024-02-21T17:52:50;14.40;99.90
35305;DHT22;26433;48.034;-1.764;2024-02-21T17:57:53;14.40;99.90
35305;DHT22;26433;48.034;-1.764;2024-02-21T18:02:57;14.40;99.90
35305;DHT22;26433;48.034;-1.764;2024-02-21T18:08:04;14.40;99.90
35305;DHT22;26433;48.034;-1.764;2024-02-21T18:13:07;14.50;99.90
35305;DHT22;26433;48.034;-1.764;2024-02-21T18:18:11;14.40;99.90
35305;DHT22;26433;48.034;-1.764;2024-02-21T18:23:16;14.40;99.90
35305;DHT22;26433;48.034;-1.764;2024-02-21T18:28:20;14.50;99.90
35305;DHT22;26433;48.034;-1.764;2024-02-21T18:33:24;14.50;99.90
35305;DHT22;26433;48.034;-1.764;2024-02-21T18:38:28;14.50;99.90
35305;DHT22;26433;48.034;-1.764;2024-02-21T18:43:32;14.50;99.90
35305;DHT22;26433;48.034;-1.764;2024-02-21T18:48:35;14.50;99.90
35305;DHT22;26433;48.034;-1.764;2024-02-21T18:53:41;14.60;99.90
35305;DHT22;26433;48.034;-1.764;2024-02-21T18:58:44;14.60;99.90
35305;DHT22;26433;48.034;-1.764;2024-02-21T19:03:49;14.60;99.90
35305;DHT22;26433;48.034;-1.764;2024-02-21T19:08:54;14.60;99.90
35305;DHT22;26433;48.034;-1.764;2024-02-21T19:13:58;14.50;99.90
35305;DHT22;26433;48.034;-1.764;2024-02-21T19:19:02;14.60;99.90
35305;DHT22;26433;48.034;-1.764;2024-02-21T19:24:07;14.60;99.90
35305;DHT22;26433;48.034;-1.764;2024-02-21T19:29:10;14.60;99.90
35305;DHT22;26433;48.034;-1.764;2024-02-21T19:34:13;14.60;99.90
35305;DHT22;26433;48.034;-1.764;2024-02-21T19:39:18;14.50;99.90
35305;DHT22;26433;48.034;-1.764;2024-02-21T19:44:22;14.60;99.90
35305;DHT22;26433;48.034;-1.764;2024-02-21T19:49:25;14.60;99.90
35305;DHT22;26433;48.034;-1.764;2024-02-21T19:54:30;14.60;99.90
35305;DHT22;26433;48.034;-1.764;2024-02-21T19:59:33;14.60;99.90
35305;DHT22;26433;48.034;-1.764;2024-02-21T20:04:38;14.60;99.90
35305;DHT22;26433;48.034;-1.764;2024-02-21T20:09:43;14.60;99.90
35305;DHT22;26433;48.034;-1.764;2024-02-21T20:14:47;14.60;99.90
35305;DHT22;26433;48.034;-1.764;2024-02-21T20:19:50;14.60;99.90
35305;DHT22;26433;48.034;-1.764;2024-02-21T20:24:55;14.60;99.90
35305;DHT22;26433;48.034;-1.764;2024-02-21T20:29:59;14.60;99.90
35305;DHT22;26433;48.034;-1.764;2024-02-21T20:35:02;14.60;99.90
35305;DHT22;26433;48.034;-1.764;2024-02-21T20:40:10;14.60;99.90
35305;DHT22;26433;48.034;-1.764;2024-02-21T20:45:13;14.60;99.90
35305;DHT22;26433;48.034;-1.764;2024-02-21T20:50:17;14.60;99.90
35305;DHT22;26433;48.034;-1.764;2024-02-21T20:55:23;14.60;99.90
35305;DHT22;26433;48.034;-1.764;2024-02-21T21:00:27;14.60;99.90
35305;DHT22;26433;48.034;-1.764;2024-02-21T21:05:30;14.60;99.90
35305;DHT22;26433;48.034;-1.764;2024-02-21T21:10:35;14.60;99.90
35305;DHT22;26433;48.034;-1.764;2024-02-21T21:15:38;14.60;99.90
35305;DHT22;26433;48.034;-1.764;2024-02-21T21:20:42;14.60;99.90
35305;DHT22;26433;48.034;-1.764;2024-02-21T21:25:46;14.60;99.90
35305;DHT22;26433;48.034;-1.764;2024-02-21T21:30:50;14.50;99.90
35305;DHT22;26433;48.034;-1.764;2024-02-21T21:35:53;14.60;99.90
35305;DHT22;26433;48.034;-1.764;2024-02-21T21:40:58;14.50;99.90
35305;DHT22;26433;48.034;-1.764;2024-02-21T21:46:02;14.60;99.90
35305;DHT22;26433;48.034;-1.764;2024-02-21T21:51:05;14.60;99.90
35305;DHT22;26433;48.034;-1.764;2024-02-21T21:56:10;14.60;99.90
35305;DHT22;26433;48.034;-1.764;2024-02-21T22:01:13;14.60;99.90
35305;DHT22;26433;48.034;-1.764;2024-02-21T22:06:17;14.50;99.90
35305;DHT22;26433;48.034;-1.764;2024-02-21T22:11:22;14.60;99.90
35305;DHT22;26433;48.034;-1.764;2024-02-21T22:16:26;14.60;99.90
35305;DHT22;26433;48.034;-1.764;2024-02-21T22:21:29;14.60;99.90
35305;DHT22;26433;48.034;-1.764;2024-02-21T22:26:34;14.60;99.90
35305;DHT22;26433;48.034;-1.764;2024-02-21T22:31:37;14.60;99.90
35305;DHT22;26433;48.034;-1.764;2024-02-21T22:36:42;14.60;99.90
35305;DHT22;26433;48.034;-1.764;2024-02-21T22:41:46;14.60;99.90
35305;DHT22;26433;48.034;-1.764;2024-02-21T22:46:50;14.60;99.90
35305;DHT22;26433;48.034;-1.764;2024-02-21T22:51:58;14.70;99.90
35305;DHT22;26433;48.034;-1.764;2024-02-21T22:57:03;14.60;99.90
35305;DHT22;26433;48.034;-1.764;2024-02-21T23:02:06;14.60;99.90
35305;DHT22;26433;48.034;-1.764;2024-02-21T23:07:10;14.60;99.90
35305;DHT22;26433;48.034;-1.764;2024-02-21T23:12:15;14.60;99.90
35305;DHT22;26433;48.034;-1.764;2024-02-21T23:17:20;14.70;99.90
35305;DHT22;26433;48.034;-1.764;2024-02-21T23:22:24;14.60;99.90
35305;DHT22;26433;48.034;-1.764;2024-02-21T23:27:29;14.60;99.90
35305;DHT22;26433;48.034;-1.764;2024-02-21T23:32:32;14.70;99.90
35305;DHT22;26433;48.034;-1.764;2024-02-21T23:37:37;14.60;99.90
35305;DHT22;26433;48.034;-1.764;2024-02-21T23:42:42;14.60;99.90
35305;DHT22;26433;48.034;-1.764;2024-02-21T23:47:48;14.60;99.90
35305;DHT22;26433;48.034;-1.764;2024-02-21T23:52:52;14.60;99.90
35305;DHT22;26433;48.034;-1.764;2024-02-21T23:57:56;14.60;99.90
